Terminal Aerodrome Forecast
Issued by NWS Binghamton, NY

Home | Current Version | Previous Version | Text Only | Print | Product List | Glossary On
Versions: 1 2 3 4 5 6 7 8 9 10 11 12 13 14 15 16 17 18
000
FTUS41 KBGM 280555
TAFBGM
TAF
KBGM 280555Z 2806/2906 15005KT P6SM SKC
     FM281200 18010KT P6SM SCT040 BKN150
     FM281800 18012G22KT P6SM BKN045 PROB30 2822/2901 3SM TSRA BR
      OVC015CB
     FM290100 VRB03KT P6SM SCT035 BKN060=

USA.gov is the U.S. government's official web portal to all federal, state and local government web resources and services.